sensor_id;sensor_type;location;lat;lon;timestamp;P1;durP1;ratioP1;P2;durP2;ratioP2
46429;SDS011;32131;53.454;-6.180;2023-03-04T00:01:07;3.47;;;0.68;;
46429;SDS011;32131;53.454;-6.180;2023-03-04T00:03:36;6.18;;;1.55;;
46429;SDS011;32131;53.454;-6.180;2023-03-04T00:06:04;3.40;;;0.82;;
46429;SDS011;32131;53.454;-6.180;2023-03-04T00:08:32;3.97;;;0.50;;
46429;SDS011;32131;53.454;-6.180;2023-03-04T00:11:01;3.25;;;0.82;;
46429;SDS011;32131;53.454;-6.180;2023-03-04T00:13:31;4.72;;;1.17;;
46429;SDS011;32131;53.454;-6.180;2023-03-04T00:15:59;5.25;;;1.08;;
46429;SDS011;32131;53.454;-6.180;2023-03-04T00:18:27;2.47;;;0.63;;
46429;SDS011;32131;53.454;-6.180;2023-03-04T00:20:55;5.15;;;0.60;;
46429;SDS011;32131;53.454;-6.180;2023-03-04T00:23:23;2.15;;;0.63;;
46429;SDS011;32131;53.454;-6.180;2023-03-04T00:25:51;5.28;;;0.63;;
46429;SDS011;32131;53.454;-6.180;2023-03-04T00:28:19;3.13;;;0.65;;
46429;SDS011;32131;53.454;-6.180;2023-03-04T00:30:49;7.15;;;0.70;;
46429;SDS011;32131;53.454;-6.180;2023-03-04T00:33:17;5.32;;;1.02;;
46429;SDS011;32131;53.454;-6.180;2023-03-04T00:35:45;3.35;;;1.13;;
46429;SDS011;32131;53.454;-6.180;2023-03-04T00:38:13;3.22;;;0.50;;
46429;SDS011;32131;53.454;-6.180;2023-03-04T00:40:41;5.63;;;0.60;;
46429;SDS011;32131;53.454;-6.180;2023-03-04T00:43:09;3.40;;;0.55;;
46429;SDS011;32131;53.454;-6.180;2023-03-04T00:45:37;6.20;;;0.63;;
46429;SDS011;32131;53.454;-6.180;2023-03-04T00:48:07;3.72;;;1.02;;
46429;SDS011;32131;53.454;-6.180;2023-03-04T00:50:35;6.78;;;0.75;;
46429;SDS011;32131;53.454;-6.180;2023-03-04T00:53:04;5.18;;;0.70;;
46429;SDS011;32131;53.454;-6.180;2023-03-04T00:55:32;6.68;;;0.65;;
46429;SDS011;32131;53.454;-6.180;2023-03-04T00:58:00;4.18;;;0.45;;
46429;SDS011;32131;53.454;-6.180;2023-03-04T01:00:28;5.35;;;0.60;;
46429;SDS011;32131;53.454;-6.180;2023-03-04T01:02:56;7.18;;;1.33;;
46429;SDS011;32131;53.454;-6.180;2023-03-04T01:05:26;3.75;;;0.55;;
46429;SDS011;32131;53.454;-6.180;2023-03-04T01:07:54;3.85;;;0.90;;
46429;SDS011;32131;53.454;-6.180;2023-03-04T01:10:22;2.33;;;0.50;;
46429;SDS011;32131;53.454;-6.180;2023-03-04T01:12:50;6.53;;;0.70;;
46429;SDS011;32131;53.454;-6.180;2023-03-04T01:15:18;3.60;;;0.70;;
46429;SDS011;32131;53.454;-6.180;2023-03-04T01:17:46;5.38;;;1.13;;
46429;SDS011;32131;53.454;-6.180;2023-03-04T01:20:15;5.93;;;0.68;;
46429;SDS011;32131;53.454;-6.180;2023-03-04T01:22:45;1.98;;;0.60;;
46429;SDS011;32131;53.454;-6.180;2023-03-04T01:25:13;1.08;;;0.43;;
46429;SDS011;32131;53.454;-6.180;2023-03-04T01:27:43;0.98;;;0.35;;
46429;SDS011;32131;53.454;-6.180;2023-03-04T01:30:11;2.55;;;0.70;;
46429;SDS011;32131;53.454;-6.180;2023-03-04T01:32:39;1.52;;;0.85;;
46429;SDS011;32131;53.454;-6.180;2023-03-04T01:35:08;0.88;;;0.47;;
46429;SDS011;32131;53.454;-6.180;2023-03-04T01:37:36;2.53;;;0.80;;
46429;SDS011;32131;53.454;-6.180;2023-03-04T01:40:06;3.35;;;0.68;;
46429;SDS011;32131;53.454;-6.180;2023-03-04T01:42:35;4.20;;;0.60;;
46429;SDS011;32131;53.454;-6.180;2023-03-04T01:45:04;6.97;;;1.10;;
46429;SDS011;32131;53.454;-6.180;2023-03-04T01:47:33;5.20;;;0.98;;
46429;SDS011;32131;53.454;-6.180;2023-03-04T01:52:37;6.57;;;0.70;;
46429;SDS011;32131;53.454;-6.180;2023-03-04T01:55:13;2.88;;;1.00;;
46429;SDS011;32131;53.454;-6.180;2023-03-04T01:57:43;7.18;;;1.40;;
46429;SDS011;32131;53.454;-6.180;2023-03-04T02:00:20;2.88;;;1.15;;
46429;SDS011;32131;53.454;-6.180;2023-03-04T02:02:52;5.25;;;1.02;;
46429;SDS011;32131;53.454;-6.180;2023-03-04T02:05:21;5.35;;;1.15;;
46429;SDS011;32131;53.454;-6.180;2023-03-04T02:07:50;2.88;;;1.25;;
46429;SDS011;32131;53.454;-6.180;2023-03-04T02:10:21;3.22;;;0.80;;
46429;SDS011;32131;53.454;-6.180;2023-03-04T02:12:50;3.28;;;1.35;;
46429;SDS011;32131;53.454;-6.180;2023-03-04T02:15:18;1.85;;;0.65;;
46429;SDS011;32131;53.454;-6.180;2023-03-04T02:17:47;6.88;;;1.52;;
46429;SDS011;32131;53.454;-6.180;2023-03-04T02:20:18;3.17;;;1.42;;
46429;SDS011;32131;53.454;-6.180;2023-03-04T02:22:56;2.70;;;0.80;;
46429;SDS011;32131;53.454;-6.180;2023-03-04T02:25:35;3.75;;;1.40;;
46429;SDS011;32131;53.454;-6.180;2023-03-04T02:28:10;5.07;;;0.98;;
46429;SDS011;32131;53.454;-6.180;2023-03-04T02:30:38;3.53;;;0.85;;
46429;SDS011;32131;53.454;-6.180;2023-03-04T02:33:09;2.17;;;1.05;;
46429;SDS011;32131;53.454;-6.180;2023-03-04T02:35:42;4.40;;;1.10;;
46429;SDS011;32131;53.454;-6.180;2023-03-04T02:38:10;3.00;;;0.82;;
46429;SDS011;32131;53.454;-6.180;2023-03-04T02:40:39;4.30;;;1.10;;
46429;SDS011;32131;53.454;-6.180;2023-03-04T02:43:13;2.55;;;1.00;;
46429;SDS011;32131;53.454;-6.180;2023-03-04T02:45:43;7.35;;;1.80;;
46429;SDS011;32131;53.454;-6.180;2023-03-04T02:48:14;3.45;;;1.27;;
46429;SDS011;32131;53.454;-6.180;2023-03-04T02:50:47;4.82;;;1.58;;
46429;SDS011;32131;53.454;-6.180;2023-03-04T02:53:17;3.10;;;1.10;;
46429;SDS011;32131;53.454;-6.180;2023-03-04T02:55:47;2.90;;;1.23;;
46429;SDS011;32131;53.454;-6.180;2023-03-04T02:58:17;5.22;;;1.25;;
46429;SDS011;32131;53.454;-6.180;2023-03-04T03:00:45;4.50;;;1.35;;
46429;SDS011;32131;53.454;-6.180;2023-03-04T03:03:13;4.10;;;1.40;;
46429;SDS011;32131;53.454;-6.180;2023-03-04T03:05:41;5.25;;;1.20;;
46429;SDS011;32131;53.454;-6.180;2023-03-04T03:08:09;6.00;;;1.30;;
46429;SDS011;32131;53.454;-6.180;2023-03-04T03:10:37;4.05;;;1.17;;
46429;SDS011;32131;53.454;-6.180;2023-03-04T03:13:05;4.55;;;1.33;;
46429;SDS011;32131;53.454;-6.180;2023-03-04T03:15:35;7.60;;;1.35;;
46429;SDS011;32131;53.454;-6.180;2023-03-04T03:18:07;3.33;;;1.17;;
46429;SDS011;32131;53.454;-6.180;2023-03-04T03:20:35;4.70;;;1.50;;
46429;SDS011;32131;53.454;-6.180;2023-03-04T03:23:04;3.85;;;1.40;;
46429;SDS011;32131;53.454;-6.180;2023-03-04T03:25:32;2.75;;;1.55;;
46429;SDS011;32131;53.454;-6.180;2023-03-04T03:28:00;5.82;;;2.05;;
46429;SDS011;32131;53.454;-6.180;2023-03-04T03:30:28;4.88;;;1.40;;
46429;SDS011;32131;53.454;-6.180;2023-03-04T03:32:58;2.53;;;1.38;;
46429;SDS011;32131;53.454;-6.180;2023-03-04T03:35:26;6.22;;;1.38;;
46429;SDS011;32131;53.454;-6.180;2023-03-04T03:37:54;3.70;;;1.27;;
46429;SDS011;32131;53.454;-6.180;2023-03-04T03:40:23;4.88;;;1.52;;
46429;SDS011;32131;53.454;-6.180;2023-03-04T03:42:51;3.50;;;1.50;;
46429;SDS011;32131;53.454;-6.180;2023-03-04T03:45:20;3.13;;;1.40;;
46429;SDS011;32131;53.454;-6.180;2023-03-04T03:47:48;2.25;;;1.10;;
46429;SDS011;32131;53.454;-6.180;2023-03-04T03:50:18;6.07;;;1.52;;
46429;SDS011;32131;53.454;-6.180;2023-03-04T03:52:46;7.53;;;1.95;;
46429;SDS011;32131;53.454;-6.180;2023-03-04T03:55:14;4.03;;;1.40;;
46429;SDS011;32131;53.454;-6.180;2023-03-04T03:57:42;2.70;;;1.23;;
46429;SDS011;32131;53.454;-6.180;2023-03-04T04:00:10;3.40;;;1.50;;
46429;SDS011;32131;53.454;-6.180;2023-03-04T04:02:39;2.78;;;1.02;;
46429;SDS011;32131;53.454;-6.180;2023-03-04T04:05:08;4.03;;;1.23;;
46429;SDS011;32131;53.454;-6.180;2023-03-04T04:07:38;4.40;;;1.52;;
46429;SDS011;32131;53.454;-6.180;2023-03-04T04:12:35;3.15;;;1.40;;
46429;SDS011;32131;53.454;-6.180;2023-03-04T04:15:04;8.18;;;1.58;;
46429;SDS011;32131;53.454;-6.180;2023-03-04T04:17:33;4.50;;;1.67;;
46429;SDS011;32131;53.454;-6.180;2023-03-04T04:20:01;4.50;;;1.27;;
46429;SDS011;32131;53.454;-6.180;2023-03-04T04:22:29;2.80;;;1.20;;
46429;SDS011;32131;53.454;-6.180;2023-03-04T04:24:58;1.63;;;1.10;;
46429;SDS011;32131;53.454;-6.180;2023-03-04T04:27:26;2.90;;;1.23;;
46429;SDS011;32131;53.454;-6.180;2023-03-04T04:29:54;4.72;;;1.40;;
46429;SDS011;32131;53.454;-6.180;2023-03-04T04:32:22;3.22;;;1.20;;
46429;SDS011;32131;53.454;-6.180;2023-03-04T04:34:50;6.35;;;1.58;;
46429;SDS011;32131;53.454;-6.180;2023-03-04T04:37:18;3.80;;;1.42;;
46429;SDS011;32131;53.454;-6.180;2023-03-04T04:39:46;11.25;;;1.42;;
46429;SDS011;32131;53.454;-6.180;2023-03-04T04:42:16;3.17;;;1.33;;
46429;SDS011;32131;53.454;-6.180;2023-03-04T04:44:44;5.75;;;1.70;;
46429;SDS011;32131;53.454;-6.180;2023-03-04T04:47:12;4.22;;;1.90;;
46429;SDS011;32131;53.454;-6.180;2023-03-04T04:49:40;5.15;;;1.67;;
46429;SDS011;32131;53.454;-6.180;2023-03-04T04:52:08;6.68;;;1.95;;
46429;SDS011;32131;53.454;-6.180;2023-03-04T04:54:37;4.22;;;2.28;;
46429;SDS011;32131;53.454;-6.180;2023-03-04T04:57:05;7.45;;;2.10;;
46429;SDS011;32131;53.454;-6.180;2023-03-04T04:59:34;4.90;;;2.10;;
46429;SDS011;32131;53.454;-6.180;2023-03-04T05:02:02;5.00;;;2.17;;
46429;SDS011;32131;53.454;-6.180;2023-03-04T05:04:30;5.38;;;2.25;;
46429;SDS011;32131;53.454;-6.180;2023-03-04T05:06:58;6.10;;;2.80;;
46429;SDS011;32131;53.454;-6.180;2023-03-04T05:09:26;8.65;;;2.58;;
46429;SDS011;32131;53.454;-6.180;2023-03-04T05:11:54;8.23;;;2.70;;
46429;SDS011;32131;53.454;-6.180;2023-03-04T05:14:23;4.32;;;2.90;;
46429;SDS011;32131;53.454;-6.180;2023-03-04T05:16:52;7.43;;;2.90;;
46429;SDS011;32131;53.454;-6.180;2023-03-04T05:19:20;4.28;;;2.92;;
46429;SDS011;32131;53.454;-6.180;2023-03-04T05:21:49;5.03;;;2.85;;
46429;SDS011;32131;53.454;-6.180;2023-03-04T05:24:17;5.65;;;2.95;;
46429;SDS011;32131;53.454;-6.180;2023-03-04T05:26:45;6.10;;;3.15;;
46429;SDS011;32131;53.454;-6.180;2023-03-04T05:29:14;6.82;;;3.33;;
46429;SDS011;32131;53.454;-6.180;2023-03-04T05:31:43;5.97;;;3.28;;
46429;SDS011;32131;53.454;-6.180;2023-03-04T05:34:12;6.15;;;3.92;;
46429;SDS011;32131;53.454;-6.180;2023-03-04T05:36:40;6.35;;;3.63;;
46429;SDS011;32131;53.454;-6.180;2023-03-04T05:39:09;6.72;;;4.20;;
46429;SDS011;32131;53.454;-6.180;2023-03-04T05:41:44;8.55;;;5.25;;
46429;SDS011;32131;53.454;-6.180;2023-03-04T05:44:12;11.05;;;4.88;;
46429;SDS011;32131;53.454;-6.180;2023-03-04T05:46:41;7.90;;;5.20;;
46429;SDS011;32131;53.454;-6.180;2023-03-04T05:49:09;8.63;;;4.78;;
46429;SDS011;32131;53.454;-6.180;2023-03-04T05:51:38;9.07;;;5.43;;
46429;SDS011;32131;53.454;-6.180;2023-03-04T05:54:06;10.77;;;5.60;;
46429;SDS011;32131;53.454;-6.180;2023-03-04T05:56:34;8.48;;;5.65;;
46429;SDS011;32131;53.454;-6.180;2023-03-04T05:59:02;8.05;;;6.05;;
46429;SDS011;32131;53.454;-6.180;2023-03-04T06:01:31;11.48;;;6.38;;
46429;SDS011;32131;53.454;-6.180;2023-03-04T06:03:59;11.38;;;6.70;;
46429;SDS011;32131;53.454;-6.180;2023-03-04T06:06:27;14.15;;;6.50;;
46429;SDS011;32131;53.454;-6.180;2023-03-04T06:08:56;12.50;;;8.10;;
46429;SDS011;32131;53.454;-6.180;2023-03-04T06:11:25;12.95;;;7.53;;
46429;SDS011;32131;53.454;-6.180;2023-03-04T06:13:53;14.65;;;8.52;;
46429;SDS011;32131;53.454;-6.180;2023-03-04T06:16:21;17.38;;;9.20;;
46429;SDS011;32131;53.454;-6.180;2023-03-04T06:18:50;14.45;;;8.40;;
46429;SDS011;32131;53.454;-6.180;2023-03-04T06:21:18;15.40;;;9.32;;
46429;SDS011;32131;53.454;-6.180;2023-03-04T06:23:46;13.82;;;8.88;;
46429;SDS011;32131;53.454;-6.180;2023-03-04T06:26:16;15.60;;;8.00;;
46429;SDS011;32131;53.454;-6.180;2023-03-04T06:28:44;14.27;;;8.18;;
46429;SDS011;32131;53.454;-6.180;2023-03-04T06:31:12;21.77;;;8.82;;
46429;SDS011;32131;53.454;-6.180;2023-03-04T06:33:40;14.10;;;7.97;;
46429;SDS011;32131;53.454;-6.180;2023-03-04T06:36:08;18.45;;;8.57;;
46429;SDS011;32131;53.454;-6.180;2023-03-04T06:38:36;16.23;;;8.52;;
46429;SDS011;32131;53.454;-6.180;2023-03-04T06:41:05;15.55;;;8.75;;
46429;SDS011;32131;53.454;-6.180;2023-03-04T06:43:36;11.27;;;7.85;;
46429;SDS011;32131;53.454;-6.180;2023-03-04T06:46:05;13.00;;;7.85;;
46429;SDS011;32131;53.454;-6.180;2023-03-04T06:48:33;11.73;;;7.15;;
46429;SDS011;32131;53.454;-6.180;2023-03-04T06:51:05;12.88;;;7.75;;
46429;SDS011;32131;53.454;-6.180;2023-03-04T06:53:34;14.52;;;8.00;;
46429;SDS011;32131;53.454;-6.180;2023-03-04T06:56:02;11.95;;;7.63;;
46429;SDS011;32131;53.454;-6.180;2023-03-04T06:58:32;13.35;;;7.45;;
46429;SDS011;32131;53.454;-6.180;2023-03-04T07:01:09;11.93;;;7.65;;
46429;SDS011;32131;53.454;-6.180;2023-03-04T07:03:38;13.27;;;8.07;;
46429;SDS011;32131;53.454;-6.180;2023-03-04T07:06:08;12.60;;;7.60;;
46429;SDS011;32131;53.454;-6.180;2023-03-04T07:08:36;11.68;;;7.47;;
46429;SDS011;32131;53.454;-6.180;2023-03-04T07:11:06;15.85;;;7.65;;
46429;SDS011;32131;53.454;-6.180;2023-03-04T07:16:06;12.68;;;7.78;;
46429;SDS011;32131;53.454;-6.180;2023-03-04T07:18:37;15.38;;;8.25;;
46429;SDS011;32131;53.454;-6.180;2023-03-04T07:21:06;17.27;;;7.70;;
46429;SDS011;32131;53.454;-6.180;2023-03-04T07:23:34;10.57;;;7.20;;
46429;SDS011;32131;53.454;-6.180;2023-03-04T07:26:03;9.82;;;6.93;;
46429;SDS011;32131;53.454;-6.180;2023-03-04T07:28:32;12.82;;;7.53;;
46429;SDS011;32131;53.454;-6.180;2023-03-04T07:31:11;12.70;;;7.72;;
46429;SDS011;32131;53.454;-6.180;2023-03-04T07:33:56;10.60;;;6.57;;
46429;SDS011;32131;53.454;-6.180;2023-03-04T07:36:26;14.35;;;7.35;;
46429;SDS011;32131;53.454;-6.180;2023-03-04T07:38:54;13.48;;;6.85;;
46429;SDS011;32131;53.454;-6.180;2023-03-04T07:41:23;13.15;;;7.22;;
46429;SDS011;32131;53.454;-6.180;2023-03-04T07:43:54;15.15;;;7.72;;
46429;SDS011;32131;53.454;-6.180;2023-03-04T07:46:23;10.68;;;7.20;;
46429;SDS011;32131;53.454;-6.180;2023-03-04T07:48:53;11.07;;;7.00;;
46429;SDS011;32131;53.454;-6.180;2023-03-04T07:51:23;13.95;;;7.45;;
46429;SDS011;32131;53.454;-6.180;2023-03-04T07:53:54;13.10;;;7.10;;
46429;SDS011;32131;53.454;-6.180;2023-03-04T07:58:52;9.98;;;6.45;;
46429;SDS011;32131;53.454;-6.180;2023-03-04T08:01:20;10.40;;;6.88;;
46429;SDS011;32131;53.454;-6.180;2023-03-04T08:03:52;13.85;;;8.20;;
46429;SDS011;32131;53.454;-6.180;2023-03-04T08:06:20;12.85;;;7.18;;
46429;SDS011;32131;53.454;-6.180;2023-03-04T08:08:54;11.65;;;7.22;;
46429;SDS011;32131;53.454;-6.180;2023-03-04T08:11:24;10.93;;;6.85;;
46429;SDS011;32131;53.454;-6.180;2023-03-04T08:13:52;11.70;;;7.03;;
46429;SDS011;32131;53.454;-6.180;2023-03-04T08:16:21;10.60;;;6.57;;
46429;SDS011;32131;53.454;-6.180;2023-03-04T08:18:51;9.90;;;6.65;;
46429;SDS011;32131;53.454;-6.180;2023-03-04T08:21:21;15.75;;;7.43;;
46429;SDS011;32131;53.454;-6.180;2023-03-04T08:23:51;11.05;;;7.57;;
46429;SDS011;32131;53.454;-6.180;2023-03-04T08:26:21;9.95;;;7.25;;
46429;SDS011;32131;53.454;-6.180;2023-03-04T08:28:51;13.25;;;7.93;;
46429;SDS011;32131;53.454;-6.180;2023-03-04T08:31:20;13.32;;;7.68;;
46429;SDS011;32131;53.454;-6.180;2023-03-04T08:33:49;16.63;;;7.60;;
46429;SDS011;32131;53.454;-6.180;2023-03-04T08:36:18;11.20;;;7.30;;
46429;SDS011;32131;53.454;-6.180;2023-03-04T08:38:46;11.77;;;7.85;;
46429;SDS011;32131;53.454;-6.180;2023-03-04T08:41:16;11.98;;;7.07;;
46429;SDS011;32131;53.454;-6.180;2023-03-04T08:43:44;14.82;;;8.18;;
46429;SDS011;32131;53.454;-6.180;2023-03-04T08:46:12;13.55;;;7.95;;
46429;SDS011;32131;53.454;-6.180;2023-03-04T08:48:41;11.40;;;7.07;;
46429;SDS011;32131;53.454;-6.180;2023-03-04T08:51:09;12.55;;;7.70;;
46429;SDS011;32131;53.454;-6.180;2023-03-04T08:53:40;15.55;;;7.60;;
46429;SDS011;32131;53.454;-6.180;2023-03-04T08:56:08;8.82;;;6.35;;
46429;SDS011;32131;53.454;-6.180;2023-03-04T08:58:38;11.70;;;6.97;;
46429;SDS011;32131;53.454;-6.180;2023-03-04T09:01:07;13.45;;;7.30;;
46429;SDS011;32131;53.454;-6.180;2023-03-04T09:03:37;12.88;;;6.90;;
46429;SDS011;32131;53.454;-6.180;2023-03-04T09:06:07;12.52;;;6.93;;
46429;SDS011;32131;53.454;-6.180;2023-03-04T09:08:36;10.48;;;7.10;;
46429;SDS011;32131;53.454;-6.180;2023-03-04T09:11:05;10.23;;;7.25;;
46429;SDS011;32131;53.454;-6.180;2023-03-04T09:13:33;13.00;;;7.25;;
46429;SDS011;32131;53.454;-6.180;2023-03-04T09:16:07;9.23;;;6.43;;
46429;SDS011;32131;53.454;-6.180;2023-03-04T09:18:37;10.85;;;6.13;;
46429;SDS011;32131;53.454;-6.180;2023-03-04T09:21:06;10.88;;;6.75;;
46429;SDS011;32131;53.454;-6.180;2023-03-04T09:23:34;9.30;;;6.28;;
46429;SDS011;32131;53.454;-6.180;2023-03-04T09:26:11;9.52;;;6.55;;
46429;SDS011;32131;53.454;-6.180;2023-03-04T09:28:41;14.00;;;7.13;;
46429;SDS011;32131;53.454;-6.180;2023-03-04T09:31:13;10.75;;;5.47;;
46429;SDS011;32131;53.454;-6.180;2023-03-04T09:33:44;10.43;;;6.20;;
46429;SDS011;32131;53.454;-6.180;2023-03-04T09:36:13;14.10;;;6.00;;
46429;SDS011;32131;53.454;-6.180;2023-03-04T09:38:45;13.20;;;6.07;;
46429;SDS011;32131;53.454;-6.180;2023-03-04T09:41:20;8.60;;;5.53;;
46429;SDS011;32131;53.454;-6.180;2023-03-04T09:43:50;12.10;;;5.72;;
46429;SDS011;32131;53.454;-6.180;2023-03-04T09:46:24;10.15;;;5.80;;
46429;SDS011;32131;53.454;-6.180;2023-03-04T09:48:59;11.30;;;5.25;;
46429;SDS011;32131;53.454;-6.180;2023-03-04T09:51:35;11.95;;;5.43;;
46429;SDS011;32131;53.454;-6.180;2023-03-04T09:54:14;10.63;;;6.32;;
46429;SDS011;32131;53.454;-6.180;2023-03-04T09:56:52;10.10;;;5.82;;
46429;SDS011;32131;53.454;-6.180;2023-03-04T09:59:28;12.90;;;5.85;;
46429;SDS011;32131;53.454;-6.180;2023-03-04T10:02:00;11.48;;;5.45;;
46429;SDS011;32131;53.454;-6.180;2023-03-04T10:04:43;15.30;;;5.65;;
46429;SDS011;32131;53.454;-6.180;2023-03-04T10:07:16;14.15;;;6.07;;
46429;SDS011;32131;53.454;-6.180;2023-03-04T10:09:49;12.20;;;6.25;;
46429;SDS011;32131;53.454;-6.180;2023-03-04T10:12:21;11.63;;;5.63;;
46429;SDS011;32131;53.454;-6.180;2023-03-04T10:14:56;8.13;;;5.72;;
46429;SDS011;32131;53.454;-6.180;2023-03-04T10:17:28;7.85;;;5.35;;
46429;SDS011;32131;53.454;-6.180;2023-03-04T10:20:04;11.25;;;5.10;;
46429;SDS011;32131;53.454;-6.180;2023-03-04T10:22:41;7.97;;;5.07;;
46429;SDS011;32131;53.454;-6.180;2023-03-04T10:25:15;9.10;;;4.75;;
46429;SDS011;32131;53.454;-6.180;2023-03-04T10:27:48;10.40;;;4.68;;
46429;SDS011;32131;53.454;-6.180;2023-03-04T10:30:35;10.80;;;4.80;;
46429;SDS011;32131;53.454;-6.180;2023-03-04T10:33:13;10.15;;;4.88;;
46429;SDS011;32131;53.454;-6.180;2023-03-04T10:35:44;7.57;;;4.50;;
46429;SDS011;32131;53.454;-6.180;2023-03-04T10:38:18;10.38;;;4.45;;
46429;SDS011;32131;53.454;-6.180;2023-03-04T10:40:48;8.13;;;4.35;;
46429;SDS011;32131;53.454;-6.180;2023-03-04T10:43:17;9.10;;;4.47;;
46429;SDS011;32131;53.454;-6.180;2023-03-04T10:45:47;10.73;;;4.43;;
46429;SDS011;32131;53.454;-6.180;2023-03-04T10:48:19;8.20;;;3.63;;
46429;SDS011;32131;53.454;-6.180;2023-03-04T10:50:49;9.90;;;3.63;;
46429;SDS011;32131;53.454;-6.180;2023-03-04T10:53:23;9.32;;;3.22;;
46429;SDS011;32131;53.454;-6.180;2023-03-04T10:55:56;10.38;;;3.25;;
46429;SDS011;32131;53.454;-6.180;2023-03-04T10:58:24;8.65;;;3.70;;
46429;SDS011;32131;53.454;-6.180;2023-03-04T11:00:59;13.88;;;3.90;;
46429;SDS011;32131;53.454;-6.180;2023-03-04T11:03:31;14.40;;;5.63;;
46429;SDS011;32131;53.454;-6.180;2023-03-04T11:06:09;10.40;;;4.28;;
46429;SDS011;32131;53.454;-6.180;2023-03-04T11:08:44;11.32;;;5.32;;
46429;SDS011;32131;53.454;-6.180;2023-03-04T11:11:23;28.20;;;11.40;;
46429;SDS011;32131;53.454;-6.180;2023-03-04T11:13:55;24.90;;;9.52;;
46429;SDS011;32131;53.454;-6.180;2023-03-04T11:16:27;9.18;;;3.83;;
46429;SDS011;32131;53.454;-6.180;2023-03-04T11:18:58;6.30;;;3.95;;
46429;SDS011;32131;53.454;-6.180;2023-03-04T11:21:30;38.20;;;13.07;;
46429;SDS011;32131;53.454;-6.180;2023-03-04T11:24:08;18.05;;;8.95;;
46429;SDS011;32131;53.454;-6.180;2023-03-04T11:26:54;13.55;;;6.38;;
46429;SDS011;32131;53.454;-6.180;2023-03-04T11:29:27;14.45;;;6.47;;
46429;SDS011;32131;53.454;-6.180;2023-03-04T11:32:02;13.52;;;7.20;;
46429;SDS011;32131;53.454;-6.180;2023-03-04T11:34:38;11.65;;;4.85;;
46429;SDS011;32131;53.454;-6.180;2023-03-04T11:37:14;14.27;;;7.47;;
46429;SDS011;32131;53.454;-6.180;2023-03-04T11:39:51;24.75;;;9.90;;
46429;SDS011;32131;53.454;-6.180;2023-03-04T11:42:27;7.43;;;3.78;;
46429;SDS011;32131;53.454;-6.180;2023-03-04T11:45:02;9.20;;;4.70;;
46429;SDS011;32131;53.454;-6.180;2023-03-04T11:47:43;28.80;;;10.68;;
46429;SDS011;32131;53.454;-6.180;2023-03-04T11:50:26;7.80;;;3.35;;
46429;SDS011;32131;53.454;-6.180;2023-03-04T11:56:02;7.75;;;3.08;;
46429;SDS011;32131;53.454;-6.180;2023-03-04T11:58:56;13.52;;;4.20;;
46429;SDS011;32131;53.454;-6.180;2023-03-04T12:01:43;6.90;;;2.95;;
46429;SDS011;32131;53.454;-6.180;2023-03-04T12:04:23;9.93;;;3.47;;
46429;SDS011;32131;53.454;-6.180;2023-03-04T12:07:08;9.98;;;4.07;;
46429;SDS011;32131;53.454;-6.180;2023-03-04T12:09:50;5.70;;;3.10;;
46429;SDS011;32131;53.454;-6.180;2023-03-04T12:12:40;3.85;;;2.40;;
46429;SDS011;32131;53.454;-6.180;2023-03-04T12:15:23;4.72;;;2.65;;
46429;SDS011;32131;53.454;-6.180;2023-03-04T12:18:04;13.00;;;4.55;;
46429;SDS011;32131;53.454;-6.180;2023-03-04T12:20:52;8.30;;;3.95;;
46429;SDS011;32131;53.454;-6.180;2023-03-04T12:23:39;7.28;;;3.58;;
46429;SDS011;32131;53.454;-6.180;2023-03-04T12:26:32;6.97;;;3.60;;
46429;SDS011;32131;53.454;-6.180;2023-03-04T12:29:09;8.43;;;3.78;;
46429;SDS011;32131;53.454;-6.180;2023-03-04T12:31:42;15.13;;;5.63;;
46429;SDS011;32131;53.454;-6.180;2023-03-04T12:34:20;11.25;;;4.00;;
46429;SDS011;32131;53.454;-6.180;2023-03-04T12:37:00;11.90;;;4.70;;
46429;SDS011;32131;53.454;-6.180;2023-03-04T12:39:40;15.88;;;5.93;;
46429;SDS011;32131;53.454;-6.180;2023-03-04T12:42:16;16.67;;;5.70;;
46429;SDS011;32131;53.454;-6.180;2023-03-04T12:44:54;10.13;;;4.22;;
46429;SDS011;32131;53.454;-6.180;2023-03-04T12:47:28;20.75;;;7.03;;
46429;SDS011;32131;53.454;-6.180;2023-03-04T12:50:06;19.92;;;8.07;;
46429;SDS011;32131;53.454;-6.180;2023-03-04T12:52:53;23.77;;;8.02;;
46429;SDS011;32131;53.454;-6.180;2023-03-04T12:55:30;17.60;;;9.18;;
46429;SDS011;32131;53.454;-6.180;2023-03-04T12:58:03;16.30;;;6.75;;
46429;SDS011;32131;53.454;-6.180;2023-03-04T13:00:38;13.10;;;5.22;;
46429;SDS011;32131;53.454;-6.180;2023-03-04T13:03:16;25.73;;;7.63;;
46429;SDS011;32131;53.454;-6.180;2023-03-04T13:05:56;25.52;;;8.00;;
46429;SDS011;32131;53.454;-6.180;2023-03-04T13:08:34;63.80;;;24.20;;
46429;SDS011;32131;53.454;-6.180;2023-03-04T13:14:21;25.75;;;9.00;;
46429;SDS011;32131;53.454;-6.180;2023-03-04T13:16:58;54.80;;;19.52;;
46429;SDS011;32131;53.454;-6.180;2023-03-04T13:19:41;49.10;;;16.13;;
46429;SDS011;32131;53.454;-6.180;2023-03-04T13:22:26;22.92;;;9.23;;
46429;SDS011;32131;53.454;-6.180;2023-03-04T13:24:56;18.38;;;7.40;;
46429;SDS011;32131;53.454;-6.180;2023-03-04T13:27:44;75.53;;;22.98;;
46429;SDS011;32131;53.454;-6.180;2023-03-04T13:39:31;18.30;;;7.38;;
46429;SDS011;32131;53.454;-6.180;2023-03-04T13:42:00;45.95;;;19.33;;
46429;SDS011;32131;53.454;-6.180;2023-03-04T13:44:33;9.23;;;3.93;;
46429;SDS011;32131;53.454;-6.180;2023-03-04T13:47:20;8.15;;;3.17;;
46429;SDS011;32131;53.454;-6.180;2023-03-04T13:52:59;20.73;;;6.22;;
46429;SDS011;32131;53.454;-6.180;2023-03-04T13:56:04;9.48;;;5.97;;
46429;SDS011;32131;53.454;-6.180;2023-03-04T13:58:48;9.70;;;4.07;;
46429;SDS011;32131;53.454;-6.180;2023-03-04T14:01:21;13.63;;;6.28;;
46429;SDS011;32131;53.454;-6.180;2023-03-04T14:03:53;22.17;;;8.38;;
46429;SDS011;32131;53.454;-6.180;2023-03-04T14:06:23;30.80;;;10.77;;
46429;SDS011;32131;53.454;-6.180;2023-03-04T14:08:53;12.68;;;5.45;;
46429;SDS011;32131;53.454;-6.180;2023-03-04T14:11:23;9.07;;;3.10;;
46429;SDS011;32131;53.454;-6.180;2023-03-04T14:13:59;13.98;;;5.78;;
46429;SDS011;32131;53.454;-6.180;2023-03-04T14:16:34;7.78;;;4.22;;
46429;SDS011;32131;53.454;-6.180;2023-03-04T14:19:11;12.70;;;5.47;;
46429;SDS011;32131;53.454;-6.180;2023-03-04T14:21:44;5.82;;;3.90;;
46429;SDS011;32131;53.454;-6.180;2023-03-04T14:24:15;7.07;;;4.05;;
46429;SDS011;32131;53.454;-6.180;2023-03-04T14:26:45;9.23;;;3.92;;
46429;SDS011;32131;53.454;-6.180;2023-03-04T14:29:21;8.85;;;3.47;;
46429;SDS011;32131;53.454;-6.180;2023-03-04T14:31:51;8.20;;;4.22;;
46429;SDS011;32131;53.454;-6.180;2023-03-04T14:34:23;8.35;;;3.60;;
46429;SDS011;32131;53.454;-6.180;2023-03-04T14:36:54;10.13;;;3.50;;
46429;SDS011;32131;53.454;-6.180;2023-03-04T14:39:23;11.90;;;3.45;;
46429;SDS011;32131;53.454;-6.180;2023-03-04T14:41:53;6.55;;;3.03;;
46429;SDS011;32131;53.454;-6.180;2023-03-04T14:44:28;6.15;;;2.83;;
46429;SDS011;32131;53.454;-6.180;2023-03-04T14:47:05;5.85;;;3.30;;
46429;SDS011;32131;53.454;-6.180;2023-03-04T14:49:37;5.85;;;3.03;;
46429;SDS011;32131;53.454;-6.180;2023-03-04T14:55:21;5.88;;;3.47;;
46429;SDS011;32131;53.454;-6.180;2023-03-04T14:57:52;6.90;;;3.17;;
46429;SDS011;32131;53.454;-6.180;2023-03-04T15:00:26;6.45;;;3.33;;
46429;SDS011;32131;53.454;-6.180;2023-03-04T15:02:56;8.38;;;3.28;;
46429;SDS011;32131;53.454;-6.180;2023-03-04T15:05:26;7.03;;;3.53;;
46429;SDS011;32131;53.454;-6.180;2023-03-04T15:07:56;5.82;;;3.55;;
46429;SDS011;32131;53.454;-6.180;2023-03-04T15:10:28;11.02;;;4.13;;
46429;SDS011;32131;53.454;-6.180;2023-03-04T15:12:59;7.40;;;2.97;;
46429;SDS011;32131;53.454;-6.180;2023-03-04T15:15:32;9.93;;;3.70;;
46429;SDS011;32131;53.454;-6.180;2023-03-04T15:18:11;6.80;;;3.30;;
46429;SDS011;32131;53.454;-6.180;2023-03-04T15:20:51;5.68;;;3.08;;
46429;SDS011;32131;53.454;-6.180;2023-03-04T15:23:20;7.18;;;3.13;;
46429;SDS011;32131;53.454;-6.180;2023-03-04T15:25:51;5.82;;;3.05;;